Hermilo Alves, Brazil
Current Conditions -  °F | °C
As of 10:00 AM on Monday 22 Dec 2014 (Local Time) from SBBQ Reporting Station
Broken Clouds Broken Clouds  
Wind Chill: 73°   Ceiling: 1500
Heat Index: 73°   Visibility: 6mi
Dew Point: 64°   Wind: 12mph
Humidity: 73%   Direction: 290°WNW
Pressure: 30.15"   Gusts: NA
Location:  21.02°S, 43.79°W
Report Text: SBBQ 221200Z 29010KT 9999 BKN015 23/18 Q1021
Loading
Personal Weather Stations






























Interactive Weather Map New forecast layout! Learn more

10-Day Weather Forecast

Advertisements
Track Severe Weather on mobile